Terminal Aerodrome Forecast
Issued by NWS Tiyan, Guam

Home | Current Version | Previous Version | Text Only | Print | Product List | Glossary On
Versions: 1 2 3 4 5 6 7 8 9 10 11 12 13 14 15 16 17 18 19 20 21 22 23 24 25 26 27 28 29 30 31 32 33
000
FTPQ31 PGUM 041420 AAB
TAFGUM
TAF AMD
PGUM 041420Z 0414/0518 01015KT P6SM -RA SCT016 BKN040 OVC120
      TEMPO 0414/0418 02018G28KT 2SM +SHRA BKN012 OVC025
     FM042000 34015G25KT P6SM -RA SCT012 BKN030 OVC100
     FM050200 32020G30KT P6SM -SHRA SCT012 BKN030 OVC100=

USA.gov is the U.S. government's official web portal to all federal, state and local government web resources and services.